sensor_id;sensor_type;location;lat;lon;timestamp;temperature;humidity
79694;DHT22;69165;52.714;13.200;2023-06-26T05:01:40;19.10;99.90
79694;DHT22;69165;52.714;13.200;2023-06-26T05:03:41;19.20;99.90
79694;DHT22;69165;52.714;13.200;2023-06-26T05:05:43;19.40;99.90
79694;DHT22;69165;52.714;13.200;2023-06-26T05:07:44;19.40;99.90
79694;DHT22;69165;52.714;13.200;2023-06-26T05:09:46;19.60;99.90
79694;DHT22;69165;52.714;13.200;2023-06-26T05:11:48;19.60;99.90
79694;DHT22;69165;52.714;13.200;2023-06-26T05:13:49;19.90;99.90
79694;DHT22;69165;52.714;13.200;2023-06-26T05:15:51;20.30;99.90
79694;DHT22;69165;52.714;13.200;2023-06-26T05:54:40;21.00;99.90
79694;DHT22;69165;52.714;13.200;2023-06-26T05:56:41;24.00;99.90
79694;DHT22;69165;52.714;13.200;2023-06-26T05:58:43;23.70;99.90
79694;DHT22;69165;52.714;13.200;2023-06-26T06:00:45;23.70;99.90
79694;DHT22;69165;52.714;13.200;2023-06-26T06:02:46;23.60;99.90
79694;DHT22;69165;52.714;13.200;2023-06-26T06:04:47;23.60;99.90
79694;DHT22;69165;52.714;13.200;2023-06-26T06:06:48;23.50;99.90
79694;DHT22;69165;52.714;13.200;2023-06-26T06:08:50;23.40;99.90
79694;DHT22;69165;52.714;13.200;2023-06-26T06:10:51;23.40;99.90
79694;DHT22;69165;52.714;13.200;2023-06-26T06:12:53;23.30;99.90
79694;DHT22;69165;52.714;13.200;2023-06-26T06:14:55;23.30;99.90
79694;DHT22;69165;52.714;13.200;2023-06-26T06:16:55;23.40;99.90
79694;DHT22;69165;52.714;13.200;2023-06-26T06:18:57;23.30;99.90
79694;DHT22;69165;52.714;13.200;2023-06-26T06:20:59;23.30;99.90
79694;DHT22;69165;52.714;13.200;2023-06-26T06:23:01;23.30;99.90
79694;DHT22;69165;52.714;13.200;2023-06-26T06:25:03;23.40;99.90
79694;DHT22;69165;52.714;13.200;2023-06-26T06:27:05;23.50;99.90
79694;DHT22;69165;52.714;13.200;2023-06-26T06:29:07;23.60;99.90
79694;DHT22;69165;52.714;13.200;2023-06-26T06:31:09;23.60;99.90
79694;DHT22;69165;52.714;13.200;2023-06-26T06:33:10;23.60;99.90
79694;DHT22;69165;52.714;13.200;2023-06-26T06:35:11;23.70;99.90
79694;DHT22;69165;52.714;13.200;2023-06-26T06:37:13;23.80;99.90
79694;DHT22;69165;52.714;13.200;2023-06-26T06:39:14;23.90;99.90
79694;DHT22;69165;52.714;13.200;2023-06-26T06:41:15;24.00;99.90
79694;DHT22;69165;52.714;13.200;2023-06-26T06:43:17;24.10;99.90
79694;DHT22;69165;52.714;13.200;2023-06-26T06:45:19;24.10;99.90
79694;DHT22;69165;52.714;13.200;2023-06-26T06:47:20;24.20;99.90
79694;DHT22;69165;52.714;13.200;2023-06-26T06:49:21;24.30;99.90
79694;DHT22;69165;52.714;13.200;2023-06-26T06:51:22;24.30;99.90
79694;DHT22;69165;52.714;13.200;2023-06-26T06:53:24;24.50;99.90
79694;DHT22;69165;52.714;13.200;2023-06-26T06:55:26;24.50;99.90
79694;DHT22;69165;52.714;13.200;2023-06-26T06:57:27;24.70;99.90
79694;DHT22;69165;52.714;13.200;2023-06-26T06:59:29;25.00;99.90
79694;DHT22;69165;52.714;13.200;2023-06-26T07:01:30;25.00;99.90
79694;DHT22;69165;52.714;13.200;2023-06-26T07:03:31;25.10;99.90
79694;DHT22;69165;52.714;13.200;2023-06-26T07:05:33;25.30;99.90
79694;DHT22;69165;52.714;13.200;2023-06-26T07:07:34;25.50;99.90
79694;DHT22;69165;52.714;13.200;2023-06-26T07:09:36;25.60;99.90
79694;DHT22;69165;52.714;13.200;2023-06-26T07:11:36;25.80;99.90
79694;DHT22;69165;52.714;13.200;2023-06-26T07:13:38;25.90;99.90
79694;DHT22;69165;52.714;13.200;2023-06-26T07:15:39;26.10;99.90
79694;DHT22;69165;52.714;13.200;2023-06-26T07:17:40;26.20;99.90
79694;DHT22;69165;52.714;13.200;2023-06-26T07:19:41;26.40;99.90
79694;DHT22;69165;52.714;13.200;2023-06-26T07:21:43;26.50;99.90
79694;DHT22;69165;52.714;13.200;2023-06-26T07:23:45;26.70;99.90
79694;DHT22;69165;52.714;13.200;2023-06-26T07:25:46;26.70;99.90
79694;DHT22;69165;52.714;13.200;2023-06-26T07:27:47;26.80;99.90
79694;DHT22;69165;52.714;13.200;2023-06-26T07:29:48;27.00;99.90
79694;DHT22;69165;52.714;13.200;2023-06-26T07:31:50;27.20;99.90
79694;DHT22;69165;52.714;13.200;2023-06-26T07:33:51;27.30;99.90
79694;DHT22;69165;52.714;13.200;2023-06-26T07:35:53;27.50;99.90
79694;DHT22;69165;52.714;13.200;2023-06-26T07:37:55;27.60;99.90
79694;DHT22;69165;52.714;13.200;2023-06-26T07:39:57;27.70;99.90
79694;DHT22;69165;52.714;13.200;2023-06-26T07:41:58;27.70;99.90
79694;DHT22;69165;52.714;13.200;2023-06-26T07:43:59;27.80;99.90
79694;DHT22;69165;52.714;13.200;2023-06-26T07:46:01;27.90;99.90
79694;DHT22;69165;52.714;13.200;2023-06-26T07:48:02;27.80;99.90
79694;DHT22;69165;52.714;13.200;2023-06-26T07:50:04;28.00;99.90
79694;DHT22;69165;52.714;13.200;2023-06-26T07:52:05;28.00;99.90
79694;DHT22;69165;52.714;13.200;2023-06-26T07:54:07;28.20;99.90
79694;DHT22;69165;52.714;13.200;2023-06-26T07:56:08;28.20;99.90
79694;DHT22;69165;52.714;13.200;2023-06-26T07:58:10;28.30;99.90
79694;DHT22;69165;52.714;13.200;2023-06-26T08:00:11;28.30;99.90
79694;DHT22;69165;52.714;13.200;2023-06-26T08:02:13;28.50;99.90
79694;DHT22;69165;52.714;13.200;2023-06-26T08:04:14;28.40;99.90
79694;DHT22;69165;52.714;13.200;2023-06-26T08:06:16;28.50;99.90
79694;DHT22;69165;52.714;13.200;2023-06-26T08:08:17;28.60;99.90
79694;DHT22;69165;52.714;13.200;2023-06-26T08:10:18;28.50;99.90
79694;DHT22;69165;52.714;13.200;2023-06-26T08:12:20;28.50;99.90
79694;DHT22;69165;52.714;13.200;2023-06-26T08:14:22;28.50;99.90
79694;DHT22;69165;52.714;13.200;2023-06-26T08:16:23;28.50;99.90
79694;DHT22;69165;52.714;13.200;2023-06-26T08:18:24;28.50;99.90
79694;DHT22;69165;52.714;13.200;2023-06-26T08:20:25;28.60;99.90
79694;DHT22;69165;52.714;13.200;2023-06-26T08:22:27;28.70;99.90
79694;DHT22;69165;52.714;13.200;2023-06-26T08:24:29;28.70;99.90
79694;DHT22;69165;52.714;13.200;2023-06-26T08:26:30;28.80;99.90
79694;DHT22;69165;52.714;13.200;2023-06-26T08:28:31;28.90;99.90
79694;DHT22;69165;52.714;13.200;2023-06-26T08:30:32;28.80;99.90
79694;DHT22;69165;52.714;13.200;2023-06-26T08:32:34;28.80;99.90
79694;DHT22;69165;52.714;13.200;2023-06-26T08:34:36;28.90;99.90
79694;DHT22;69165;52.714;13.200;2023-06-26T08:36:37;28.90;99.90
79694;DHT22;69165;52.714;13.200;2023-06-26T08:38:38;29.00;99.90
79694;DHT22;69165;52.714;13.200;2023-06-26T08:40:42;29.10;99.50
79694;DHT22;69165;52.714;13.200;2023-06-26T08:42:43;29.10;99.30
79694;DHT22;69165;52.714;13.200;2023-06-26T08:44:44;29.20;99.90
79694;DHT22;69165;52.714;13.200;2023-06-26T08:46:46;29.20;99.70
79694;DHT22;69165;52.714;13.200;2023-06-26T08:48:48;29.20;99.60
79694;DHT22;69165;52.714;13.200;2023-06-26T08:50:49;29.30;99.10
79694;DHT22;69165;52.714;13.200;2023-06-26T08:52:54;29.30;99.50
79694;DHT22;69165;52.714;13.200;2023-06-26T08:54:57;29.30;99.10
79694;DHT22;69165;52.714;13.200;2023-06-26T08:56:56;29.40;99.20
79694;DHT22;69165;52.714;13.200;2023-06-26T08:58:58;29.30;99.20
79694;DHT22;69165;52.714;13.200;2023-06-26T09:00:59;29.40;98.30
79694;DHT22;69165;52.714;13.200;2023-06-26T09:03:01;29.40;98.60
79694;DHT22;69165;52.714;13.200;2023-06-26T09:05:02;29.40;98.60
79694;DHT22;69165;52.714;13.200;2023-06-26T09:07:03;29.40;99.00
79694;DHT22;69165;52.714;13.200;2023-06-26T09:09:06;29.60;99.60
79694;DHT22;69165;52.714;13.200;2023-06-26T09:11:07;29.50;99.50
79694;DHT22;69165;52.714;13.200;2023-06-26T09:13:08;29.60;98.00
79694;DHT22;69165;52.714;13.200;2023-06-26T09:15:10;29.70;98.60
79694;DHT22;69165;52.714;13.200;2023-06-26T09:17:12;29.60;98.50
79694;DHT22;69165;52.714;13.200;2023-06-26T09:19:13;29.80;98.10
79694;DHT22;69165;52.714;13.200;2023-06-26T09:21:14;29.80;98.30
79694;DHT22;69165;52.714;13.200;2023-06-26T09:23:16;29.80;97.40
79694;DHT22;69165;52.714;13.200;2023-06-26T09:25:18;29.70;97.60
79694;DHT22;69165;52.714;13.200;2023-06-26T09:27:20;29.80;97.30
79694;DHT22;69165;52.714;13.200;2023-06-26T09:29:21;29.80;97.30
79694;DHT22;69165;52.714;13.200;2023-06-26T09:31:23;29.80;97.40
79694;DHT22;69165;52.714;13.200;2023-06-26T09:33:25;30.00;97.50
79694;DHT22;69165;52.714;13.200;2023-06-26T09:35:27;29.90;97.40
79694;DHT22;69165;52.714;13.200;2023-06-26T09:37:28;29.90;97.40
79694;DHT22;69165;52.714;13.200;2023-06-26T09:39:30;29.90;97.40
79694;DHT22;69165;52.714;13.200;2023-06-26T09:41:32;30.00;97.80
79694;DHT22;69165;52.714;13.200;2023-06-26T09:43:33;29.90;97.70
79694;DHT22;69165;52.714;13.200;2023-06-26T09:45:35;30.00;97.20
79694;DHT22;69165;52.714;13.200;2023-06-26T09:47:38;30.20;97.90
79694;DHT22;69165;52.714;13.200;2023-06-26T09:49:41;30.40;98.40
79694;DHT22;69165;52.714;13.200;2023-06-26T09:51:42;30.50;98.10
79694;DHT22;69165;52.714;13.200;2023-06-26T09:53:43;30.60;97.10
79694;DHT22;69165;52.714;13.200;2023-06-26T09:55:44;30.60;96.70
79694;DHT22;69165;52.714;13.200;2023-06-26T09:57:46;30.50;97.50
79694;DHT22;69165;52.714;13.200;2023-06-26T09:59:47;30.50;96.90
79694;DHT22;69165;52.714;13.200;2023-06-26T10:01:48;30.50;96.40
79694;DHT22;69165;52.714;13.200;2023-06-26T10:03:49;30.50;95.70
79694;DHT22;69165;52.714;13.200;2023-06-26T10:05:51;30.60;95.90
79694;DHT22;69165;52.714;13.200;2023-06-26T10:07:54;30.60;95.90
79694;DHT22;69165;52.714;13.200;2023-06-26T10:09:55;30.60;95.90
79694;DHT22;69165;52.714;13.200;2023-06-26T10:11:57;30.60;96.00
79694;DHT22;69165;52.714;13.200;2023-06-26T10:13:57;30.70;96.60
79694;DHT22;69165;52.714;13.200;2023-06-26T10:15:59;30.70;95.30
79694;DHT22;69165;52.714;13.200;2023-06-26T10:18:00;30.80;95.30
79694;DHT22;69165;52.714;13.200;2023-06-26T10:20:02;30.90;95.70
79694;DHT22;69165;52.714;13.200;2023-06-26T10:22:02;30.90;95.90
79694;DHT22;69165;52.714;13.200;2023-06-26T10:24:04;31.00;96.30
79694;DHT22;69165;52.714;13.200;2023-06-26T10:26:05;31.00;97.10
79694;DHT22;69165;52.714;13.200;2023-06-26T10:28:06;31.00;96.50
79694;DHT22;69165;52.714;13.200;2023-06-26T10:30:09;31.10;96.40
79694;DHT22;69165;52.714;13.200;2023-06-26T10:32:10;31.20;95.00
79694;DHT22;69165;52.714;13.200;2023-06-26T10:34:11;31.20;94.90
79694;DHT22;69165;52.714;13.200;2023-06-26T10:36:13;31.20;95.60
79694;DHT22;69165;52.714;13.200;2023-06-26T10:38:14;31.20;95.40
79694;DHT22;69165;52.714;13.200;2023-06-26T10:40:24;31.20;95.10
79694;DHT22;69165;52.714;13.200;2023-06-26T10:44:39;31.20;95.50
79694;DHT22;69165;52.714;13.200;2023-06-26T10:46:48;31.10;95.40
79694;DHT22;69165;52.714;13.200;2023-06-26T10:48:55;31.20;95.60
79694;DHT22;69165;52.714;13.200;2023-06-26T10:50:39;31.20;95.60
79694;DHT22;69165;52.714;13.200;2023-06-26T10:52:40;31.30;95.60
79694;DHT22;69165;52.714;13.200;2023-06-26T10:54:41;31.30;95.30
79694;DHT22;69165;52.714;13.200;2023-06-26T10:56:43;31.30;96.30
79694;DHT22;69165;52.714;13.200;2023-06-26T10:58:45;31.20;95.00
79694;DHT22;69165;52.714;13.200;2023-06-26T11:00:49;31.30;95.10
79694;DHT22;69165;52.714;13.200;2023-06-26T11:02:50;31.30;95.10
79694;DHT22;69165;52.714;13.200;2023-06-26T11:04:51;31.30;94.20
79694;DHT22;69165;52.714;13.200;2023-06-26T11:06:53;31.30;95.70
79694;DHT22;69165;52.714;13.200;2023-06-26T11:09:07;31.30;95.10
79694;DHT22;69165;52.714;13.200;2023-06-26T11:10:59;31.40;96.60
79694;DHT22;69165;52.714;13.200;2023-06-26T11:12:57;31.40;94.70
79694;DHT22;69165;52.714;13.200;2023-06-26T11:14:59;31.50;94.90
79694;DHT22;69165;52.714;13.200;2023-06-26T11:17:02;31.50;94.90
79694;DHT22;69165;52.714;13.200;2023-06-26T11:19:01;31.60;96.00
79694;DHT22;69165;52.714;13.200;2023-06-26T11:21:08;31.60;95.30
79694;DHT22;69165;52.714;13.200;2023-06-26T11:23:09;31.80;96.00
79694;DHT22;69165;52.714;13.200;2023-06-26T11:25:10;31.80;96.00
79694;DHT22;69165;52.714;13.200;2023-06-26T11:27:11;31.70;96.10
79694;DHT22;69165;52.714;13.200;2023-06-26T11:29:12;31.70;96.10
79694;DHT22;69165;52.714;13.200;2023-06-26T11:33:26;31.70;94.90
79694;DHT22;69165;52.714;13.200;2023-06-26T11:35:23;31.70;95.30
79694;DHT22;69165;52.714;13.200;2023-06-26T11:37:24;31.70;94.40
79694;DHT22;69165;52.714;13.200;2023-06-26T11:39:26;31.80;95.80
79694;DHT22;69165;52.714;13.200;2023-06-26T11:41:28;31.80;95.80
79694;DHT22;69165;52.714;13.200;2023-06-26T11:43:29;31.80;95.40
79694;DHT22;69165;52.714;13.200;2023-06-26T11:45:30;32.00;95.10
79694;DHT22;69165;52.714;13.200;2023-06-26T11:47:32;32.10;93.50
79694;DHT22;69165;52.714;13.200;2023-06-26T11:49:33;32.00;93.50
79694;DHT22;69165;52.714;13.200;2023-06-26T11:51:35;32.00;93.90
79694;DHT22;69165;52.714;13.200;2023-06-26T11:53:39;32.10;94.60
79694;DHT22;69165;52.714;13.200;2023-06-26T11:55:40;32.10;94.60
79694;DHT22;69165;52.714;13.200;2023-06-26T11:57:41;32.10;94.20
79694;DHT22;69165;52.714;13.200;2023-06-26T11:59:43;32.20;95.90
79694;DHT22;69165;52.714;13.200;2023-06-26T12:01:44;32.20;95.90
79694;DHT22;69165;52.714;13.200;2023-06-26T12:03:45;32.20;93.50
79694;DHT22;69165;52.714;13.200;2023-06-26T12:05:47;32.20;93.70
79694;DHT22;69165;52.714;13.200;2023-06-26T12:07:48;32.20;93.40
79694;DHT22;69165;52.714;13.200;2023-06-26T12:09:49;32.20;93.80
79694;DHT22;69165;52.714;13.200;2023-06-26T12:11:53;32.30;94.00
79694;DHT22;69165;52.714;13.200;2023-06-26T12:13:54;32.30;95.00
79694;DHT22;69165;52.714;13.200;2023-06-26T12:15:57;32.30;95.00
79694;DHT22;69165;52.714;13.200;2023-06-26T12:17:57;32.30;94.60
79694;DHT22;69165;52.714;13.200;2023-06-26T12:19:58;32.40;93.80
79694;DHT22;69165;52.714;13.200;2023-06-26T12:21:59;32.40;95.80
79694;DHT22;69165;52.714;13.200;2023-06-26T12:24:00;32.40;93.80
79694;DHT22;69165;52.714;13.200;2023-06-26T12:30:16;32.40;93.90
79694;DHT22;69165;52.714;13.200;2023-06-26T12:32:17;32.50;93.00
79694;DHT22;69165;52.714;13.200;2023-06-26T12:34:19;32.50;94.50
79694;DHT22;69165;52.714;13.200;2023-06-26T12:36:20;32.60;94.00
79694;DHT22;69165;52.714;13.200;2023-06-26T12:38:22;32.50;93.00
79694;DHT22;69165;52.714;13.200;2023-06-26T12:40:23;32.50;93.00
79694;DHT22;69165;52.714;13.200;2023-06-26T12:42:26;32.50;93.30
79694;DHT22;69165;52.714;13.200;2023-06-26T12:44:27;32.50;93.30
79694;DHT22;69165;52.714;13.200;2023-06-26T12:46:34;32.60;94.20
79694;DHT22;69165;52.714;13.200;2023-06-26T12:48:38;32.60;91.90
79694;DHT22;69165;52.714;13.200;2023-06-26T12:50:43;32.70;93.60
79694;DHT22;69165;52.714;13.200;2023-06-26T12:52:44;32.70;93.40
79694;DHT22;69165;52.714;13.200;2023-06-26T12:54:45;32.60;93.00
79694;DHT22;69165;52.714;13.200;2023-06-26T12:56:47;32.50;93.60
79694;DHT22;69165;52.714;13.200;2023-06-26T12:58:48;32.40;93.50
79694;DHT22;69165;52.714;13.200;2023-06-26T13:00:49;32.40;94.40
79694;DHT22;69165;52.714;13.200;2023-06-26T13:02:50;32.30;92.60
79694;DHT22;69165;52.714;13.200;2023-06-26T13:04:52;32.20;92.80
79694;DHT22;69165;52.714;13.200;2023-06-26T13:06:53;32.10;93.50
79694;DHT22;69165;52.714;13.200;2023-06-26T13:08:55;31.80;94.10
79694;DHT22;69165;52.714;13.200;2023-06-26T13:10:57;31.80;94.10
79694;DHT22;69165;52.714;13.200;2023-06-26T13:12:59;31.50;94.10
79694;DHT22;69165;52.714;13.200;2023-06-26T13:15:01;31.30;93.50
79694;DHT22;69165;52.714;13.200;2023-06-26T13:17:03;31.20;93.90
79694;DHT22;69165;52.714;13.200;2023-06-26T13:19:04;31.10;93.80
79694;DHT22;69165;52.714;13.200;2023-06-26T13:21:05;31.00;93.60
79694;DHT22;69165;52.714;13.200;2023-06-26T13:23:07;30.90;93.80
79694;DHT22;69165;52.714;13.200;2023-06-26T13:25:08;30.70;93.90
79694;DHT22;69165;52.714;13.200;2023-06-26T13:27:09;30.60;94.30
79694;DHT22;69165;52.714;13.200;2023-06-26T13:29:10;30.50;94.40
79694;DHT22;69165;52.714;13.200;2023-06-26T13:31:12;30.30;94.90
79694;DHT22;69165;52.714;13.200;2023-06-26T13:33:13;30.30;95.10
79694;DHT22;69165;52.714;13.200;2023-06-26T13:35:14;30.20;95.40
79694;DHT22;69165;52.714;13.200;2023-06-26T13:37:15;30.10;95.30
79694;DHT22;69165;52.714;13.200;2023-06-26T13:39:17;30.00;95.30
79694;DHT22;69165;52.714;13.200;2023-06-26T13:41:19;30.00;95.30
79694;DHT22;69165;52.714;13.200;2023-06-26T13:43:21;30.00;95.20
79694;DHT22;69165;52.714;13.200;2023-06-26T13:45:24;30.00;95.20
79694;DHT22;69165;52.714;13.200;2023-06-26T13:47:24;30.00;95.20
79694;DHT22;69165;52.714;13.200;2023-06-26T13:49:25;29.90;95.30
79694;DHT22;69165;52.714;13.200;2023-06-26T13:51:27;29.90;96.10
79694;DHT22;69165;52.714;13.200;2023-06-26T13:53:28;29.90;95.90
79694;DHT22;69165;52.714;13.200;2023-06-26T13:55:29;29.80;96.00
79694;DHT22;69165;52.714;13.200;2023-06-26T13:57:31;29.80;96.40
79694;DHT22;69165;52.714;13.200;2023-06-26T13:59:32;29.70;96.60
79694;DHT22;69165;52.714;13.200;2023-06-26T14:01:33;29.60;97.10
79694;DHT22;69165;52.714;13.200;2023-06-26T14:03:35;29.10;98.00
79694;DHT22;69165;52.714;13.200;2023-06-26T14:05:37;28.20;99.90
79694;DHT22;69165;52.714;13.200;2023-06-26T14:07:39;28.10;99.90
79694;DHT22;69165;52.714;13.200;2023-06-26T14:09:41;24.20;99.90
79694;DHT22;69165;52.714;13.200;2023-06-26T14:11:43;24.00;99.90
79694;DHT22;69165;52.714;13.200;2023-06-26T14:13:43;23.00;99.90
79694;DHT22;69165;52.714;13.200;2023-06-26T14:15:45;22.50;99.90
79694;DHT22;69165;52.714;13.200;2023-06-26T14:17:46;22.20;99.90
79694;DHT22;69165;52.714;13.200;2023-06-26T14:19:47;22.00;99.90
79694;DHT22;69165;52.714;13.200;2023-06-26T14:21:48;21.90;99.90
79694;DHT22;69165;52.714;13.200;2023-06-26T14:23:50;21.90;99.90
79694;DHT22;69165;52.714;13.200;2023-06-26T14:25:51;21.90;99.90
79694;DHT22;69165;52.714;13.200;2023-06-26T14:27:52;22.00;99.90
79694;DHT22;69165;52.714;13.200;2023-06-26T14:29:53;22.00;99.90
79694;DHT22;69165;52.714;13.200;2023-06-26T14:31:55;22.00;99.90
79694;DHT22;69165;52.714;13.200;2023-06-26T14:33:56;22.00;99.90
79694;DHT22;69165;52.714;13.200;2023-06-26T14:35:57;21.90;99.90
79694;DHT22;69165;52.714;13.200;2023-06-26T14:37:58;21.90;99.90
79694;DHT22;69165;52.714;13.200;2023-06-26T14:40:00;21.90;99.90
79694;DHT22;69165;52.714;13.200;2023-06-26T14:42:01;21.90;99.90
79694;DHT22;69165;52.714;13.200;2023-06-26T14:44:03;22.00;99.90
79694;DHT22;69165;52.714;13.200;2023-06-26T14:46:04;22.00;99.90
79694;DHT22;69165;52.714;13.200;2023-06-26T14:48:05;22.00;99.90
79694;DHT22;69165;52.714;13.200;2023-06-26T14:50:07;22.00;99.90
79694;DHT22;69165;52.714;13.200;2023-06-26T14:52:08;22.00;99.90
79694;DHT22;69165;52.714;13.200;2023-06-26T14:54:10;21.90;99.90
79694;DHT22;69165;52.714;13.200;2023-06-26T14:56:12;21.80;99.90
79694;DHT22;69165;52.714;13.200;2023-06-26T14:58:14;21.80;99.90
79694;DHT22;69165;52.714;13.200;2023-06-26T15:00:16;21.80;99.90
79694;DHT22;69165;52.714;13.200;2023-06-26T15:02:19;21.70;99.90
79694;DHT22;69165;52.714;13.200;2023-06-26T15:04:20;21.70;99.90
79694;DHT22;69165;52.714;13.200;2023-06-26T15:06:21;21.70;99.90
79694;DHT22;69165;52.714;13.200;2023-06-26T15:08:23;21.70;99.90
79694;DHT22;69165;52.714;13.200;2023-06-26T15:10:24;21.70;99.90
79694;DHT22;69165;52.714;13.200;2023-06-26T15:12:26;21.80;99.90
79694;DHT22;69165;52.714;13.200;2023-06-26T15:14:28;21.80;99.90
79694;DHT22;69165;52.714;13.200;2023-06-26T15:16:30;21.80;99.90
79694;DHT22;69165;52.714;13.200;2023-06-26T15:18:32;21.80;99.90
79694;DHT22;69165;52.714;13.200;2023-06-26T15:20:33;21.80;99.90
79694;DHT22;69165;52.714;13.200;2023-06-26T15:22:34;21.90;99.90
79694;DHT22;69165;52.714;13.200;2023-06-26T15:24:35;21.90;99.90
79694;DHT22;69165;52.714;13.200;2023-06-26T15:26:37;21.90;99.90
79694;DHT22;69165;52.714;13.200;2023-06-26T15:28:39;21.90;99.90
79694;DHT22;69165;52.714;13.200;2023-06-26T15:30:40;21.90;99.90
79694;DHT22;69165;52.714;13.200;2023-06-26T15:32:41;22.00;99.90
79694;DHT22;69165;52.714;13.200;2023-06-26T15:34:42;22.00;99.90
79694;DHT22;69165;52.714;13.200;2023-06-26T15:36:44;22.00;99.90
79694;DHT22;69165;52.714;13.200;2023-06-26T15:38:45;22.00;99.90
79694;DHT22;69165;52.714;13.200;2023-06-26T15:40:46;22.00;99.90
79694;DHT22;69165;52.714;13.200;2023-06-26T15:42:49;21.90;99.90
79694;DHT22;69165;52.714;13.200;2023-06-26T15:44:50;21.90;99.90
79694;DHT22;69165;52.714;13.200;2023-06-26T15:46:51;21.80;99.90
79694;DHT22;69165;52.714;13.200;2023-06-26T15:48:52;21.70;99.90
79694;DHT22;69165;52.714;13.200;2023-06-26T15:50:54;21.60;99.90
79694;DHT22;69165;52.714;13.200;2023-06-26T15:52:56;21.50;99.90
79694;DHT22;69165;52.714;13.200;2023-06-26T15:54:57;21.50;99.90
79694;DHT22;69165;52.714;13.200;2023-06-26T15:56:58;21.50;99.90
79694;DHT22;69165;52.714;13.200;2023-06-26T15:59:00;21.50;99.90
79694;DHT22;69165;52.714;13.200;2023-06-26T16:01:02;21.50;99.90
79694;DHT22;69165;52.714;13.200;2023-06-26T16:03:03;21.60;99.90
79694;DHT22;69165;52.714;13.200;2023-06-26T16:05:04;21.60;99.90
79694;DHT22;69165;52.714;13.200;2023-06-26T16:07:05;21.70;99.90
79694;DHT22;69165;52.714;13.200;2023-06-26T16:09:07;21.70;99.90
79694;DHT22;69165;52.714;13.200;2023-06-26T16:11:09;21.80;99.90
79694;DHT22;69165;52.714;13.200;2023-06-26T16:13:10;21.80;99.90
79694;DHT22;69165;52.714;13.200;2023-06-26T16:15:12;21.80;99.90
79694;DHT22;69165;52.714;13.200;2023-06-26T16:17:13;21.80;99.90
79694;DHT22;69165;52.714;13.200;2023-06-26T16:19:15;21.80;99.90
79694;DHT22;69165;52.714;13.200;2023-06-26T16:21:16;21.80;99.90
79694;DHT22;69165;52.714;13.200;2023-06-26T16:23:17;21.80;99.90
79694;DHT22;69165;52.714;13.200;2023-06-26T16:25:18;21.80;99.90
79694;DHT22;69165;52.714;13.200;2023-06-26T16:27:20;21.80;99.90
79694;DHT22;69165;52.714;13.200;2023-06-26T16:29:21;21.80;99.90
79694;DHT22;69165;52.714;13.200;2023-06-26T16:31:22;21.80;99.90
79694;DHT22;69165;52.714;13.200;2023-06-26T16:33:23;21.80;99.90
79694;DHT22;69165;52.714;13.200;2023-06-26T16:35:26;21.70;99.90
79694;DHT22;69165;52.714;13.200;2023-06-26T16:37:26;21.70;99.90
79694;DHT22;69165;52.714;13.200;2023-06-26T16:39:27;21.70;99.90
79694;DHT22;69165;52.714;13.200;2023-06-26T16:41:29;21.70;99.90
79694;DHT22;69165;52.714;13.200;2023-06-26T16:43:31;21.60;99.90
79694;DHT22;69165;52.714;13.200;2023-06-26T16:45:32;21.60;99.90
79694;DHT22;69165;52.714;13.200;2023-06-26T16:47:33;21.60;99.90
79694;DHT22;69165;52.714;13.200;2023-06-26T16:49:34;21.60;99.90
79694;DHT22;69165;52.714;13.200;2023-06-26T16:51:36;21.60;99.90
79694;DHT22;69165;52.714;13.200;2023-06-26T16:53:37;21.60;99.90
79694;DHT22;69165;52.714;13.200;2023-06-26T16:55:38;21.60;99.90
79694;DHT22;69165;52.714;13.200;2023-06-26T16:57:39;21.60;99.90
79694;DHT22;69165;52.714;13.200;2023-06-26T16:59:41;21.70;99.90
79694;DHT22;69165;52.714;13.200;2023-06-26T17:01:42;21.70;99.90
79694;DHT22;69165;52.714;13.200;2023-06-26T17:03:43;21.80;99.90
79694;DHT22;69165;52.714;13.200;2023-06-26T17:05:44;21.80;99.90
79694;DHT22;69165;52.714;13.200;2023-06-26T17:07:46;21.80;99.90
79694;DHT22;69165;52.714;13.200;2023-06-26T17:09:48;22.00;99.90
79694;DHT22;69165;52.714;13.200;2023-06-26T17:11:49;22.00;99.90
79694;DHT22;69165;52.714;13.200;2023-06-26T17:13:50;22.00;99.90
79694;DHT22;69165;52.714;13.200;2023-06-26T17:15:51;22.00;99.90
79694;DHT22;69165;52.714;13.200;2023-06-26T17:17:54;22.10;99.90
79694;DHT22;69165;52.714;13.200;2023-06-26T17:19:55;22.10;99.90
79694;DHT22;69165;52.714;13.200;2023-06-26T17:21:57;22.10;99.90
79694;DHT22;69165;52.714;13.200;2023-06-26T17:23:58;22.10;99.90
79694;DHT22;69165;52.714;13.200;2023-06-26T17:25:59;22.10;99.90
79694;DHT22;69165;52.714;13.200;2023-06-26T17:28:01;22.10;99.90
79694;DHT22;69165;52.714;13.200;2023-06-26T17:30:03;22.10;99.90
79694;DHT22;69165;52.714;13.200;2023-06-26T17:32:05;22.10;99.90
79694;DHT22;69165;52.714;13.200;2023-06-26T17:34:06;22.10;99.90
79694;DHT22;69165;52.714;13.200;2023-06-26T17:36:07;22.10;99.90
79694;DHT22;69165;52.714;13.200;2023-06-26T17:38:09;22.10;99.90
79694;DHT22;69165;52.714;13.200;2023-06-26T17:40:11;22.10;99.90
79694;DHT22;69165;52.714;13.200;2023-06-26T17:42:12;22.10;99.90
79694;DHT22;69165;52.714;13.200;2023-06-26T17:44:13;22.10;99.90
79694;DHT22;69165;52.714;13.200;2023-06-26T17:46:14;22.00;99.90
79694;DHT22;69165;52.714;13.200;2023-06-26T17:48:16;22.00;99.90
79694;DHT22;69165;52.714;13.200;2023-06-26T17:50:18;22.00;99.90
79694;DHT22;69165;52.714;13.200;2023-06-26T17:52:19;22.00;99.90
79694;DHT22;69165;52.714;13.200;2023-06-26T17:54:20;21.90;99.90
79694;DHT22;69165;52.714;13.200;2023-06-26T17:56:21;21.90;99.90
79694;DHT22;69165;52.714;13.200;2023-06-26T17:58:23;21.90;99.90
79694;DHT22;69165;52.714;13.200;2023-06-26T18:00:25;21.80;99.90
79694;DHT22;69165;52.714;13.200;2023-06-26T18:02:26;21.80;99.90
79694;DHT22;69165;52.714;13.200;2023-06-26T18:04:27;21.70;99.90
79694;DHT22;69165;52.714;13.200;2023-06-26T18:06:28;21.70;99.90
79694;DHT22;69165;52.714;13.200;2023-06-26T18:08:30;21.70;99.90
79694;DHT22;69165;52.714;13.200;2023-06-26T18:10:32;21.70;99.90
79694;DHT22;69165;52.714;13.200;2023-06-26T18:12:33;21.70;99.90
79694;DHT22;69165;52.714;13.200;2023-06-26T18:14:34;21.70;99.90
79694;DHT22;69165;52.714;13.200;2023-06-26T18:16:36;21.70;99.90
79694;DHT22;69165;52.714;13.200;2023-06-26T18:18:38;21.70;99.90
79694;DHT22;69165;52.714;13.200;2023-06-26T18:20:39;21.60;99.90